createdAt,value
2022-10-19T00:00:54.535Z,20.07
2022-10-19T00:07:27.774Z,20.06
2022-10-19T00:13:52.089Z,20.05
2022-10-19T00:20:27.071Z,20.03
2022-10-19T00:26:51.403Z,20.02
2022-10-19T00:33:19.458Z,20.02
2022-10-19T00:39:52.529Z,20.00
2022-10-19T00:46:26.810Z,20.00
2022-10-19T00:53:00.461Z,19.99
2022-10-19T00:59:26.716Z,19.98
2022-10-19T01:12:38.038Z,19.95
2022-10-19T01:25:51.883Z,19.92
2022-10-19T01:32:29.286Z,19.90
2022-10-19T01:38:53.473Z,19.88
2022-10-19T01:52:18.844Z,19.85
2022-10-19T01:58:48.986Z,19.84
2022-10-19T02:05:13.261Z,19.82
2022-10-19T02:11:41.311Z,19.81
2022-10-19T02:18:10.068Z,19.79
2022-10-19T02:24:37.417Z,19.78
2022-10-19T02:31:02.848Z,19.77
2022-10-19T02:37:28.256Z,19.76
2022-10-19T02:43:52.705Z,19.73
2022-10-19T02:50:17.048Z,19.73
2022-10-19T02:56:49.431Z,19.73
2022-10-19T03:03:13.725Z,19.71
2022-10-19T03:09:38.009Z,19.70
2022-10-19T03:16:02.650Z,19.69
2022-10-19T03:22:26.875Z,19.69
2022-10-19T03:28:51.219Z,19.67
2022-10-19T03:35:15.446Z,19.66
2022-10-19T03:41:44.139Z,19.65
2022-10-19T03:47:49.504Z,19.64
2022-10-19T03:54:15.850Z,19.63
2022-10-19T04:00:40.181Z,19.61
2022-10-19T04:07:10.398Z,19.60
2022-10-19T04:13:34.582Z,19.58
2022-10-19T04:19:58.776Z,19.58
2022-10-19T04:26:23.009Z,19.57
2022-10-19T04:32:51.102Z,19.59
2022-10-19T04:39:15.418Z,19.68
2022-10-19T04:45:39.629Z,19.88
2022-10-19T04:52:04.001Z,20.15
2022-10-19T04:58:28.270Z,20.46
2022-10-19T05:04:54.167Z,20.75
2022-10-19T05:11:18.411Z,20.99
2022-10-19T05:17:42.701Z,21.25
2022-10-19T05:24:06.930Z,21.48
2022-10-19T05:30:32.374Z,21.67
2022-10-19T05:36:56.591Z,21.80
2022-10-19T05:43:20.861Z,21.88
2022-10-19T05:49:45.188Z,21.91
2022-10-19T05:56:10.687Z,21.91
2022-10-19T06:02:42.752Z,21.89
2022-10-19T06:09:06.963Z,21.86
2022-10-19T06:15:31.269Z,21.82
2022-10-19T06:22:08.360Z,21.78
2022-10-19T06:28:38.658Z,21.73
2022-10-19T06:35:04.077Z,21.69
2022-10-19T06:41:28.378Z,21.64
2022-10-19T06:47:52.705Z,21.59
2022-10-19T06:54:18.266Z,21.54
2022-10-19T07:00:42.840Z,21.50
2022-10-19T07:07:07.137Z,21.46
2022-10-19T07:13:32.087Z,21.42
2022-10-19T07:19:58.311Z,21.39
2022-10-19T07:26:22.528Z,21.36
2022-10-19T07:32:47.180Z,21.32
2022-10-19T07:39:11.801Z,21.29
2022-10-19T07:45:36.081Z,21.26
2022-10-19T07:52:04.184Z,21.23
2022-10-19T07:58:30.434Z,21.20
2022-10-19T08:05:02.110Z,21.18
2022-10-19T08:25:17.952Z,21.15
2022-10-19T08:31:44.310Z,21.14
2022-10-19T08:38:08.524Z,21.13
2022-10-19T08:44:45.730Z,21.11
2022-10-19T08:51:25.603Z,21.09
2022-10-19T08:57:54.331Z,21.06
2022-10-19T09:04:47.855Z,21.03
2022-10-19T09:11:16.528Z,21.03
2022-10-19T09:17:40.791Z,21.01
2022-10-19T09:24:20.282Z,20.99
2022-10-19T09:30:48.211Z,20.95
2022-10-19T09:44:02.294Z,20.90
2022-10-19T09:50:51.595Z,20.89
2022-10-19T09:57:18.558Z,20.90
2022-10-19T10:03:48.044Z,20.90
2022-10-19T10:10:19.331Z,20.88
2022-10-19T10:16:53.348Z,20.85
2022-10-19T10:23:41.402Z,20.80
2022-10-19T10:30:08.363Z,20.76
2022-10-19T10:36:32.681Z,20.72
2022-10-19T10:43:05.606Z,20.73
2022-10-19T10:49:32.369Z,20.70
2022-10-19T10:56:11.249Z,20.64
2022-10-19T11:02:34.825Z,20.59
2022-10-19T11:09:33.154Z,20.55
2022-10-19T11:16:00.208Z,20.51
2022-10-19T11:22:26.357Z,20.49
2022-10-19T11:29:08.631Z,20.48
2022-10-19T11:35:39.972Z,20.49
2022-10-19T11:42:10.939Z,20.51
2022-10-19T11:48:35.295Z,20.54
2022-10-19T11:55:05.737Z,20.57
2022-10-19T12:01:29.998Z,20.59
2022-10-19T12:07:57.093Z,20.65
2022-10-19T12:14:29.971Z,20.75
2022-10-19T12:20:56.865Z,20.85
2022-10-19T12:27:21.473Z,20.88
2022-10-19T12:33:47.137Z,20.82
2022-10-19T12:40:27.313Z,20.74
2022-10-19T12:47:01.070Z,20.64
2022-10-19T12:53:44.000Z,20.57
2022-10-19T13:00:10.961Z,20.52
2022-10-19T13:06:42.033Z,20.53
2022-10-19T13:13:21.193Z,20.53
2022-10-19T13:20:00.682Z,20.65
2022-10-19T13:26:24.977Z,20.99
2022-10-19T13:32:48.279Z,21.32
2022-10-19T13:39:18.814Z,21.62
2022-10-19T13:45:44.769Z,21.91
2022-10-19T13:52:19.643Z,22.22
2022-10-19T13:59:00.033Z,22.53
2022-10-19T14:05:25.595Z,22.80
2022-10-19T14:11:52.830Z,22.91
2022-10-19T14:18:19.492Z,22.91
2022-10-19T14:24:44.146Z,22.90
2022-10-19T14:31:22.361Z,22.86
2022-10-19T14:37:47.163Z,22.79
2022-10-19T14:44:23.576Z,22.73
2022-10-19T14:50:46.894Z,22.66
2022-10-19T14:57:13.620Z,22.58
2022-10-19T15:03:42.859Z,22.51
2022-10-19T15:10:13.723Z,22.43
2022-10-19T15:16:38.024Z,22.35
2022-10-19T15:23:14.321Z,22.27
2022-10-19T15:29:47.664Z,22.19
2022-10-19T15:36:18.342Z,22.11
2022-10-19T15:43:02.198Z,22.01
2022-10-19T15:49:26.475Z,21.93
2022-10-19T15:55:53.671Z,21.85
2022-10-19T16:02:18.064Z,21.77
2022-10-19T16:08:42.308Z,21.70
2022-10-19T16:15:06.657Z,21.62
2022-10-19T16:21:30.921Z,21.56
2022-10-19T16:27:47.610Z,21.49
2022-10-19T16:34:11.939Z,21.42
2022-10-19T16:40:28.877Z,21.35
2022-10-19T16:46:53.195Z,21.30
2022-10-19T16:53:17.398Z,21.24
2022-10-19T16:59:41.781Z,21.18
2022-10-19T17:06:06.188Z,21.11
2022-10-19T17:12:33.611Z,21.06
2022-10-19T17:18:58.104Z,21.01
2022-10-19T17:25:22.378Z,20.96
2022-10-19T17:31:46.639Z,20.91
2022-10-19T17:38:09.796Z,20.87
2022-10-19T17:44:34.173Z,20.82
2022-10-19T17:50:58.460Z,20.78
2022-10-19T17:57:22.839Z,20.74
2022-10-19T18:03:47.052Z,20.69
2022-10-19T18:10:11.256Z,20.66
2022-10-19T18:16:41.669Z,20.64
2022-10-19T18:23:06.270Z,20.63
2022-10-19T18:29:33.277Z,20.62
2022-10-19T18:35:57.613Z,20.61
2022-10-19T18:42:21.830Z,20.59
2022-10-19T18:48:29.124Z,20.57
2022-10-19T18:54:53.488Z,20.55
2022-10-19T19:01:17.831Z,20.52
2022-10-19T19:07:42.177Z,20.49
2022-10-19T19:14:06.416Z,20.48
2022-10-19T19:20:30.712Z,20.46
2022-10-19T19:26:54.966Z,20.44
2022-10-19T19:33:19.242Z,20.41
2022-10-19T19:39:43.527Z,20.40
2022-10-19T19:46:09.270Z,20.38
2022-10-19T19:52:38.077Z,20.36
2022-10-19T19:59:04.594Z,20.38
2022-10-19T20:05:28.866Z,20.43
2022-10-19T20:11:53.163Z,20.55
2022-10-19T20:18:17.346Z,20.70
2022-10-19T20:24:41.621Z,20.91
2022-10-19T20:31:06.142Z,21.09
2022-10-19T20:37:30.427Z,21.22
2022-10-19T20:43:54.870Z,21.31
2022-10-19T20:50:21.784Z,21.37
2022-10-19T20:56:46.289Z,21.40
2022-10-19T21:03:18.940Z,21.43
2022-10-19T21:09:43.255Z,21.45
2022-10-19T21:16:00.426Z,21.45
2022-10-19T21:22:33.320Z,21.45
2022-10-19T21:29:00.172Z,21.42
2022-10-19T21:35:24.682Z,21.39
2022-10-19T21:41:48.987Z,21.34
2022-10-19T21:48:13.190Z,21.29
2022-10-19T21:54:37.666Z,21.24
2022-10-19T22:01:02.016Z,21.19
2022-10-19T22:07:26.229Z,21.13
2022-10-19T22:13:50.778Z,21.08
2022-10-19T22:20:15.075Z,21.03
2022-10-19T22:26:39.285Z,20.98
2022-10-19T22:33:03.560Z,20.93
2022-10-19T22:39:28.037Z,20.89
2022-10-19T22:45:45.159Z,20.85
2022-10-19T22:52:09.396Z,20.81
2022-10-19T22:58:33.652Z,20.77
2022-10-19T23:04:57.837Z,20.72
2022-10-19T23:11:22.099Z,20.68
2022-10-19T23:17:46.478Z,20.63
2022-10-19T23:24:10.833Z,20.58
2022-10-19T23:30:35.161Z,20.53
2022-10-19T23:37:02.224Z,20.49
2022-10-19T23:43:26.519Z,20.43
2022-10-19T23:49:50.806Z,20.38
2022-10-19T23:56:15.264Z,20.33
